Terminal Aerodrome Forecast
Issued by NWS Brownsville, TX

Home | Current Version | Previous Version | Text Only | Print | Product List | Glossary On
Versions: 1 2 3 4 5 6 7 8 9 10 11 12 13 14 15 16 17
000
FTUS44 KBRO 271720
TAFHRL
TAF
KHRL 271720Z 2718/2818 13013KT P6SM SCT029 SCT035 BKN045
     FM280300 12011KT P6SM OVC030
     FM280400 14009KT P6SM OVC019
     FM281400 15013KT P6SM BKN025
     FM281500 16016G22KT P6SM BKN025
     FM281600 16015G21KT P6SM BKN050=

USA.gov is the U.S. government's official web portal to all federal, state and local government web resources and services.